ADDS METAR Data INFO
IDs: Format: Raw Decoded Include TAF

Data at: 0756 UTC 23 Jul 2018

KAID 230755Z AUTO 35003KT 10SM CLR 16/15 A2988 RMK AO2 T01600145
KAID 230735Z AUTO 01003KT 10SM CLR 16/14 A2988 RMK AO2 T01600144
KAID 230715Z AUTO 36003KT 10SM CLR 16/15 A2988 RMK AO2 T01620145
KAID 230655Z AUTO 36004KT 10SM CLR 16/15 A2987 RMK AO2 T01630146
KAID 230635Z AUTO 36005KT 10SM CLR 17/15 A2987 RMK AO2 T01650148
KAID 230615Z AUTO 36004KT 10SM CLR 17/15 A2988 RMK AO2 T01670148
KAID 230555Z AUTO 35004KT 10SM CLR 17/15 A2988 RMK AO2 T01710150 10228 20171 402640171
KAID 230535Z AUTO 35004KT 10SM CLR 18/15 A2989 RMK AO2 T01750148
KAID 230515Z AUTO 01004KT 10SM CLR 18/15 A2989 RMK AO2 T01780150
KAID 230455Z AUTO 01004KT 10SM CLR 18/15 A2989 RMK AO2 T01810151
KAID 230435Z AUTO 01004KT 10SM SCT110 18/15 A2989 RMK AO2 T01810152
KAID 230415Z AUTO 00000KT 10SM CLR 18/16 A2989 RMK AO2 T01820155
KAID 230355Z AUTO 01003KT 10SM CLR 18/16 A2989 RMK AO2 T01840155
KAID 230335Z AUTO 02004KT 10SM CLR 19/16 A2989 RMK AO2 T01860155
KAID 230315Z AUTO 01004KT 10SM SCT048 19/15 A2990 RMK AO2 T01910154
KAID 230255Z AUTO 02004KT 10SM SCT046 20/16 A2989 RMK AO2 T01950155
KAID 230235Z AUTO 04005KT 10SM CLR 20/15 A2989 RMK AO2 T02000152
KAID 230215Z AUTO 03006KT 10SM CLR 20/16 A2988 RMK AO2 T02010156
KAID 230155Z AUTO 03005KT 10SM SCT120 20/16 A2987 RMK AO2 T02030159
KAID 230135Z AUTO 03006KT 10SM OVC120 21/16 A2987 RMK AO2 T02050161
KAID 230115Z AUTO 03005KT 10SM BKN120 21/16 A2986 RMK AO2 T02100164
KAID 230055Z AUTO 03004KT 10SM SCT120 21/16 A2986 RMK AO2 T02110164
KAID 230035Z AUTO 03007KT 10SM CLR 22/16 A2985 RMK AO2 T02160161
KAID 230015Z AUTO 03010G14KT 10SM SCT036 22/17 A2984 RMK AO2 T02210165
KAID 222355Z AUTO 04005KT 10SM SCT028 BKN034 23/17 A2983 RMK AO2 T02300173 10264 20215
KAID 222335Z AUTO 03004KT 10SM BKN028 BKN085 24/19 A2982 RMK AO2 T02400185
KAID 222315Z AUTO 04008KT 10SM SCT085 25/18 A2981 RMK AO2 T02500182
KAID 222255Z AUTO 03009KT 10SM CLR 25/19 A2981 RMK AO2 T02480187
KAID 222235Z AUTO 03013KT 10SM SCT027 SCT034 SCT065 25/19 A2980 RMK AO2 T02520190
KAID 222215Z AUTO 04008KT 10SM SCT027 SCT032 SCT065 25/19 A2980 RMK AO2 T02450191
KAID 222155Z AUTO 04010KT 10SM CLR 25/20 A2980 RMK AO2 T02480201
KAID 221335Z AUTO 04006KT 10SM SCT009 OVC015 21/19 A2976 RMK AO2 T02060194
KAID 221315Z AUTO 02007KT 7SM BKN009 OVC015 20/19 A2976 RMK AO2 T02030194
KAID 221255Z AUTO 03005KT 5SM BR BKN007 OVC015 20/20 A2976 RMK AO2 T02030195
KAID 221235Z AUTO 02006KT 5SM BR BKN007 OVC017 20/20 A2975 RMK AO2 T02030197
KAID 221215Z AUTO 02005KT 5SM BR SCT007 OVC015 20/20 A2975 RMK AO2 T02020200
KAID 221155Z AUTO 36005KT 4SM BR SCT007 OVC013 20/20 A2975 RMK AO2 60007 70096 T02000200 10201 20197
KAID 221135Z AUTO 01004KT 4SM BR BKN010 OVC013 20/20 A2974 RMK AO2 T02000200
KAID 221115Z AUTO 01003KT 3SM -RA OVC008 20/20 A2974 RMK AO2 T01980198
KAID 221055Z AUTO 03005KT 4SM BR BKN005 OVC010 20/20 A2973 RMK AO2 P0007 T01980198
KAID 221035Z AUTO 01008KT 4SM -DZ OVC005 20/20 A2972 RMK AO2 P0007 T02000200
KAID 221015Z AUTO 01006KT 4SM -RA BKN005 OVC009 20/20 A2972 RMK AO2 P0006 T02000200
KAID 220955Z AUTO 01006KT 5SM BR OVC005 20/20 A2971 RMK AO2 T02010201
KAID 220935Z AUTO 01004KT 5SM BR OVC005 20/20 A2971 RMK AO2 T02010201
KAID 220915Z AUTO 36004KT 5SM BR OVC005 20/20 A2971 RMK AO2 T02010201
KAID 220855Z AUTO 36004KT 7SM OVC005 20/20 A2971 RMK AO2 T02010201
KAID 220835Z AUTO 01004KT 7SM OVC003 20/20 A2971 RMK AO2 T02010201
KAID 220815Z AUTO 36006KT 7SM BKN003 OVC008 20/20 A2971 RMK AO2 T02000200
KAID 220755Z AUTO 35005KT 7SM BKN003 OVC010 20/20 A2972 RMK AO2 T02000200
KAID 220735Z AUTO 35005KT 7SM BKN003 BKN008 OVC014 20/20 A2972 RMK AO2 T02000200
KAID 220715Z AUTO 33004KT 7SM SCT005 BKN012 OVC033 20/20 A2972 RMK AO2 T02000200
KAID 220655Z AUTO 34004KT 10SM SCT006 OVC012 20/20 A2972 RMK AO2 T02010201
KAID 220635Z AUTO 36003KT 10SM BKN004 OVC009 20/20 A2973 RMK AO2 T02000200
KAID 220615Z AUTO 01004KT 10SM OVC004 20/20 A2972 RMK AO2 T02000198
KAID 220555Z AUTO 35006KT 10SM OVC004 20/20 A2972 RMK AO2 60031 T02010199 10214 20201 402340190
KAID 220535Z AUTO 01006KT 10SM OVC006 20/20 A2973 RMK AO2 T02010198
KAID 220515Z AUTO 01004KT 10SM OVC006 20/20 A2973 RMK AO2 T02020200
KAID 220455Z AUTO 35006KT 10SM OVC008 20/20 A2973 RMK AO2 P0001 T02020200
KAID 220435Z AUTO 35007KT 10SM OVC006 20/20 A2972 RMK AO2 P0001 T02030200
KAID 220415Z AUTO 35006KT 10SM -RA BKN006 OVC017 20/20 A2973 RMK AO2 P0001 T02030198
KAID 220355Z AUTO 35007KT 5SM RA BKN006 OVC017 21/20 A2973 RMK AO2 P0003 T02050199
KAID 220335Z AUTO 34007KT 10SM OVC006 21/20 A2973 RMK AO2 T02060200
KAID 220315Z AUTO 34008KT 7SM DZ OVC006 21/20 A2974 RMK AO2 T02060200
KAID 220255Z AUTO 33007KT 10SM OVC006 21/20 A2974 RMK AO2 P0003 60026 T02070201
KAID 220235Z AUTO 34007KT 10SM -RA OVC006 21/20 A2974 RMK AO2 P0002 T02070200
KAID 220215Z AUTO 34008KT 10SM RA OVC006 21/20 A2973 RMK AO2 P0001 T02060200
KAID 220155Z AUTO 34012KT 7SM RA OVC006 21/20 A2973 RMK AO2 P0021 T02070200
KAID 220135Z AUTO 33010G17KT 4SM +RA BKN006 OVC014 21/20 A2972 RMK AO2 P0016 T02080200
KAID 220115Z AUTO 33010G15KT 7SM RA BKN006 OVC013 21/20 A2972 RMK AO2 P0001 T02100201
KAID 220055Z AUTO 35012G15KT 7SM RA OVC008 21/20 A2971 RMK AO2 T02120203
KAID 220035Z AUTO 31004KT 10SM BKN008 BKN015 OVC020 21/21 A2971 RMK AO2 T02140205
KAID 220015Z AUTO 32007KT 10SM SCT007 BKN018 OVC024 21/20 A2971 RMK AO2 T02120203
KAID 212355Z AUTO 28004KT 4SM -DZ BKN009 BKN018 OVC041 21/21 A2971 RMK AO2 P0001 60033 T02140205 10234 20208
KAID 212335Z AUTO 27004KT 7SM SCT008 BKN018 OVC043 21/21 A2971 RMK AO2 P0001 T02140205
KAID 212315Z AUTO 27003KT 10SM SCT008 BKN018 OVC028 22/21 A2971 RMK AO2 T02150206
KAID 212255Z AUTO 00000KT 10SM SCT008 BKN020 OVC039 22/21 A2971 RMK AO2 P0001 T02150206
KAID 212235Z AUTO 00000KT 10SM SCT008 BKN018 OVC075 21/20 A2972 RMK AO2 P0001 T02110202
KAID 212215Z AUTO 29003KT 7SM -RA BKN006 BKN014 OVC050 21/21 A2971 RMK AO2 T02130205
KAID 212155Z AUTO 29005KT 7SM -RA OVC006 21/20 A2972 RMK AO2 P0022 T02110203